Time;durP1;ratioP1;P1;durP2;ratioP2;P2;SDS_P1;SDS_P2;PMS_P1;PMS_P2;Temp;Humidity;BMP_temperature;BMP_pressure;BME280_temperature;BME280_humidity;BME280_pressure;Samples;Min_cycle;Max_cycle;Signal;HPM_P1;HPM_P2
2023/06/21 00:00:13;;;;;;;59.40;36.83;;;17.10;99.90;;;;;;5118567;27;20047;-29
2023/06/21 00:02:40;;;;;;;49.60;34.33;;;19.30;99.90;;;;;;5137284;27;20126;-28
2023/06/21 00:05:09;;;;;;;51.20;33.58;;;16.90;99.90;;;;;;5136579;27;20043;-30
2023/06/21 00:07:35;;;;;;;53.47;35.78;;;19.20;99.90;;;;;;5118024;27;20520;-28
2023/06/21 00:10:01;;;;;;;58.65;38.92;;;17.20;99.90;;;;;;5137320;27;20062;-28
2023/06/21 00:12:28;;;;;;;54.50;36.90;;;17.30;99.90;;;;;;5136488;27;20175;-29
2023/06/21 00:14:53;;;;;;;60.28;39.60;;;19.50;99.90;;;;;;5136427;27;20053;-29
2023/06/21 00:17:19;;;;;;;60.53;39.92;;;18.60;99.90;;;;;;5136384;27;20043;-28
2023/06/21 00:19:47;;;;;;;62.00;39.33;;;17.00;99.90;;;;;;5100966;27;20138;-29
2023/06/21 00:22:14;;;;;;;66.82;39.40;;;19.50;99.90;;;;;;5101506;27;20047;-28
2023/06/21 00:24:39;;;;;;;66.53;41.35;;;17.00;99.90;;;;;;5136105;27;20039;-28
2023/06/21 00:27:05;;;;;;;66.78;41.67;;;19.40;99.90;;;;;;5136074;27;20039;-29
2023/06/21 00:29:31;;;;;;;76.72;45.53;;;17.30;99.90;;;;;;5117755;27;20051;-28
2023/06/21 00:31:58;;;;;;;75.63;44.72;;;19.10;99.90;;;;;;5136073;27;20162;-28
2023/06/21 00:34:23;;;;;;;75.63;44.13;;;17.00;99.90;;;;;;5135988;27;20047;-29
2023/06/21 00:36:50;;;;;;;70.82;42.20;;;19.30;99.90;;;;;;5135962;27;20039;-28
2023/06/21 00:39:16;;;;;;;73.13;43.53;;;19.30;99.90;;;;;;5118694;27;20099;-28
2023/06/21 00:41:42;;;;;;;87.55;48.08;;;18.50;99.90;;;;;;5100505;27;20134;-28
2023/06/21 00:44:08;;;;;;;73.22;44.53;;;17.20;99.90;;;;;;5135767;27;20122;-28
2023/06/21 00:46:34;;;;;;;71.47;44.65;;;19.30;99.90;;;;;;5100489;27;20046;-29
2023/06/21 00:49:00;;;;;;;84.75;45.83;;;18.70;99.90;;;;;;5136159;27;20388;-28
2023/06/21 00:51:26;;;;;;;106.80;52.65;;;17.50;99.90;;;;;;5117078;27;20516;-29
2023/06/21 00:53:52;;;;;;;88.00;46.58;;;19.10;99.90;;;;;;5135651;27;20046;-28
2023/06/21 00:56:18;;;;;;;100.35;49.90;;;17.10;99.90;;;;;;5135572;27;20047;-29
2023/06/21 00:58:44;;;;;;;94.00;49.92;;;17.10;99.90;;;;;;5101108;27;20039;-28
2023/06/21 01:01:10;;;;;;;103.07;52.45;;;18.80;99.90;;;;;;5117202;27;20062;-28
2023/06/21 01:03:36;;;;;;;98.68;50.92;;;19.20;99.90;;;;;;5100310;27;20039;-28
2023/06/21 01:06:10;;;;;;;95.95;51.67;;;16.90;99.90;;;;;;5118193;27;20048;-28
2023/06/21 01:08:44;;;;;;;98.57;51.78;;;17.90;99.90;;;;;;5135362;27;20082;-29
2023/06/21 01:11:53;;;;;;;115.13;56.72;;;16.60;99.90;;;;;;5101114;27;20465;-28
2023/06/21 01:14:33;;;;;;;102.03;51.92;;;16.70;99.90;;;;;;5135282;27;20039;-29
2023/06/21 01:17:03;;;;;;;115.15;55.40;;;18.20;99.90;;;;;;5135250;27;20047;-29
2023/06/21 01:19:52;;;;;;;111.30;55.85;;;18.80;99.90;;;;;;5117432;27;20488;-28
2023/06/21 01:22:21;;;;;;;105.00;53.35;;;17.90;99.90;;;;;;5117267;27;20054;-28
2023/06/21 01:24:59;;;;;;;125.97;59.85;;;16.60;99.90;;;;;;5135375;27;20384;-28
2023/06/21 01:28:03;;;;;;;98.40;50.80;;;16.50;99.90;;;;;;5117193;27;20392;-29
2023/06/21 01:30:32;;;;;;;131.75;59.50;;;19.30;99.90;;;;;;5096264;27;20393;-28
2023/06/21 01:32:59;;;;;;;108.55;55.28;;;19.30;99.90;;;;;;5134360;27;20130;-29
2023/06/21 01:35:25;;;;;;;121.90;57.47;;;19.30;99.90;;;;;;5135173;27;20598;-28
2023/06/21 01:37:52;;;;;;;128.30;56.33;;;17.60;99.90;;;;;;5116701;27;20070;-28
2023/06/21 01:40:19;;;;;;;118.78;57.33;;;18.60;99.90;;;;;;5135145;27;20078;-28
2023/06/21 01:42:45;;;;;;;117.43;54.03;;;19.00;99.90;;;;;;5134842;27;20130;-28
2023/06/21 01:45:11;;;;;;;111.53;53.00;;;16.60;99.90;;;;;;5135021;27;20188;-28
2023/06/21 01:47:39;;;;;;;116.70;58.05;;;18.50;99.90;;;;;;5096011;28;20108;-28
2023/06/21 01:50:08;;;;;;;114.43;55.78;;;19.00;99.90;;;;;;5113479;28;20513;-28
2023/06/21 01:52:35;;;;;;;123.82;58.95;;;19.00;99.90;;;;;;5113049;28;20044;-29
2023/06/21 01:55:05;;;;;;;124.03;57.20;;;18.60;99.90;;;;;;5114185;28;20081;-28
2023/06/21 01:57:35;;;;;;;106.45;53.83;;;17.10;99.90;;;;;;5113493;28;20051;-29
2023/06/21 02:00:17;;;;;;;123.47;57.17;;;16.60;99.90;;;;;;5112905;28;20048;-28
2023/06/21 02:03:03;;;;;;;112.13;54.57;;;19.30;99.90;;;;;;5114989;28;20058;-28
2023/06/21 02:05:31;;;;;;;121.43;55.63;;;19.40;99.90;;;;;;5113996;28;20054;-28
2023/06/21 02:07:58;;;;;;;108.88;53.13;;;16.80;99.90;;;;;;5114083;28;20047;-28
2023/06/21 02:10:25;;;;;;;119.90;54.35;;;19.30;99.90;;;;;;5114569;28;20051;-28
2023/06/21 02:12:53;;;;;;;117.30;54.58;;;16.60;99.90;;;;;;5113047;28;20048;-28
2023/06/21 02:15:19;;;;;;;118.78;54.38;;;19.10;99.90;;;;;;5096745;28;20043;-29
2023/06/21 02:17:49;;;;;;;123.60;56.35;;;18.80;99.90;;;;;;5114565;28;20054;-28
2023/06/21 02:20:19;;;;;;;126.25;56.95;;;18.80;99.90;;;;;;5113975;28;20055;-28
2023/06/21 02:22:46;;;;;;;115.70;55.85;;;19.00;99.90;;;;;;5114184;28;20516;-28
2023/06/21 02:25:13;;;;;;;114.75;56.15;;;16.70;99.90;;;;;;5113846;28;20083;-28
2023/06/21 02:27:39;;;;;;;109.55;54.33;;;19.40;99.90;;;;;;5113775;28;20126;-28
2023/06/21 02:30:07;;;;;;;127.25;56.05;;;17.90;99.90;;;;;;5113837;28;20050;-28
2023/06/21 02:32:33;;;;;;;127.60;56.95;;;16.80;99.90;;;;;;5114423;28;20043;-28
2023/06/21 02:34:59;;;;;;;116.28;54.60;;;19.10;99.90;;;;;;5113473;28;20439;-28
2023/06/21 02:37:29;;;;;;;124.70;56.47;;;17.30;99.90;;;;;;5114657;28;20252;-28
2023/06/21 02:39:57;;;;;;;135.77;59.35;;;19.20;99.90;;;;;;5113739;28;20138;-28
2023/06/21 02:42:26;;;;;;;137.50;58.80;;;17.50;99.90;;;;;;5112564;28;20044;-28
2023/06/21 02:44:52;;;;;;;119.10;53.97;;;17.90;99.90;;;;;;5116522;28;20044;-28
2023/06/21 02:47:18;;;;;;;138.57;55.40;;;16.60;99.90;;;;;;5123137;27;20055;-28
2023/06/21 02:49:44;;;;;;;156.85;59.67;;;18.50;99.90;;;;;;5138673;27;20059;-28
2023/06/21 02:52:10;;;;;;;135.30;58.30;;;18.20;99.90;;;;;;5138295;27;20142;-28
2023/06/21 02:54:35;;;;;;;136.40;58.15;;;17.00;99.90;;;;;;5138564;27;20079;-28
2023/06/21 02:57:01;;;;;;;146.93;58.90;;;16.60;99.90;;;;;;5137899;27;20392;-27
2023/06/21 02:59:28;;;;;;;149.27;62.10;;;18.80;99.90;;;;;;5102759;27;20082;-28
2023/06/21 03:01:55;;;;;;;137.43;59.92;;;18.50;99.90;;;;;;5119585;27;20184;-28
2023/06/21 03:04:21;;;;;;;139.95;59.42;;;16.20;99.90;;;;;;5119734;27;20047;-28
2023/06/21 03:06:46;;;;;;;151.18;60.58;;;16.30;99.90;;;;;;5137710;27;20476;-28
2023/06/21 03:09:12;;;;;;;140.18;59.80;;;18.80;99.90;;;;;;5137748;27;20043;-28
2023/06/21 03:11:38;;;;;;;148.40;62.03;;;17.50;99.90;;;;;;5119355;27;20046;-27
2023/06/21 03:14:04;;;;;;;130.85;58.78;;;18.70;99.90;;;;;;5120385;27;20130;-28
2023/06/21 03:16:30;;;;;;;142.77;61.55;;;16.20;99.90;;;;;;5119618;27;20088;-27
2023/06/21 03:18:55;;;;;;;154.98;62.72;;;16.50;99.90;;;;;;5138048;27;20442;-28
2023/06/21 03:21:22;;;;;;;132.40;59.08;;;16.30;99.90;;;;;;5120120;27;20039;-27
2023/06/21 03:23:49;;;;;;;141.40;58.05;;;16.20;99.90;;;;;;5137297;27;20103;-27
2023/06/21 03:26:14;;;;;;;141.77;61.55;;;17.00;99.90;;;;;;5119205;27;20522;-28
2023/06/21 03:28:41;;;;;;;147.18;64.43;;;16.20;99.90;;;;;;5119253;27;20047;-27
2023/06/21 03:31:07;;;;;;;141.05;61.88;;;18.40;99.90;;;;;;5137535;27;20419;-28
2023/06/21 03:33:32;;;;;;;146.10;63.28;;;16.40;99.90;;;;;;5137549;27;20036;-27
2023/06/21 03:35:58;;;;;;;137.18;60.92;;;16.30;99.90;;;;;;5137268;27;20416;-27
2023/06/21 03:38:24;;;;;;;159.38;63.22;;;17.00;99.90;;;;;;5137128;27;20054;-27
2023/06/21 03:40:50;;;;;;;144.05;60.40;;;16.20;99.90;;;;;;5118786;27;20129;-27
2023/06/21 03:43:16;;;;;;;136.57;60.38;;;16.10;99.90;;;;;;5136975;27;20119;-28
2023/06/21 03:45:42;;;;;;;151.57;64.88;;;17.50;99.90;;;;;;5137023;27;20039;-27
2023/06/21 03:48:08;;;;;;;138.88;62.38;;;16.10;99.90;;;;;;5136577;27;20510;-27
2023/06/21 03:50:34;;;;;;;170.65;65.93;;;16.80;99.90;;;;;;5118866;27;20126;-28
2023/06/21 03:53:00;;;;;;;164.75;67.50;;;17.00;99.90;;;;;;5118703;27;20484;-28
2023/06/21 03:55:26;;;;;;;146.77;63.47;;;16.20;99.90;;;;;;5118061;27;20047;-28
2023/06/21 03:57:51;;;;;;;156.77;65.30;;;16.20;99.90;;;;;;5136769;27;20050;-28
2023/06/21 04:00:17;;;;;;;151.38;60.60;;;18.00;99.90;;;;;;5136710;27;20082;-27
2023/06/21 04:02:43;;;;;;;137.55;63.17;;;17.20;99.90;;;;;;5136674;27;20082;-27
2023/06/21 04:05:10;;;;;;;145.23;62.47;;;16.30;99.90;;;;;;5136544;27;20035;-27
2023/06/21 04:07:37;;;;;;;142.80;61.38;;;17.10;99.90;;;;;;5136598;27;20396;-28
2023/06/21 04:10:03;;;;;;;166.05;65.40;;;17.90;99.90;;;;;;5136511;27;20050;-27
2023/06/21 04:12:30;;;;;;;163.77;66.53;;;17.90;99.90;;;;;;5136476;27;20039;-27
2023/06/21 04:14:57;;;;;;;154.57;62.38;;;16.40;99.90;;;;;;5119163;27;20381;-27
2023/06/21 04:17:23;;;;;;;126.57;57.13;;;16.50;99.90;;;;;;5101255;27;20055;-27
2023/06/21 04:19:49;;;;;;;126.18;55.40;;;16.50;99.90;;;;;;5136366;27;20054;-28
2023/06/21 04:22:14;;;;;;;125.43;55.90;;;17.10;99.90;;;;;;5117994;27;20126;-27
2023/06/21 04:24:40;;;;;;;138.45;59.53;;;17.90;99.90;;;;;;5100968;27;20047;-27
2023/06/21 04:27:06;;;;;;;118.03;53.88;;;16.60;99.90;;;;;;5117815;27;20035;-27
2023/06/21 04:29:40;;;;;;;127.40;53.60;;;17.70;99.90;;;;;;5136133;27;20039;-28
2023/06/21 04:32:06;;;;;;;138.85;57.15;;;17.80;99.90;;;;;;5101884;27;20051;-27
2023/06/21 04:34:33;;;;;;;128.43;53.63;;;17.80;99.90;;;;;;5135995;27;20373;-27
2023/06/21 04:36:59;;;;;;;129.10;52.50;;;17.80;99.90;;;;;;5118713;27;20104;-26
2023/06/21 04:39:24;;;;;;;123.15;52.72;;;17.30;99.90;;;;;;5136327;27;20039;-27
2023/06/21 04:41:52;;;;;;;100.82;46.00;;;17.10;99.90;;;;;;5135880;27;20055;-27
2023/06/21 04:44:18;;;;;;;85.07;43.30;;;17.30;99.90;;;;;;5135763;27;20077;-27
2023/06/21 04:46:46;;;;;;;105.07;45.08;;;17.40;99.90;;;;;;5135476;27;20066;-27
2023/06/21 04:49:12;;;;;;;93.47;40.97;;;17.50;99.90;;;;;;5136357;27;20137;-29
2023/06/21 04:51:37;;;;;;;73.80;37.95;;;17.50;99.90;;;;;;5135629;27;20130;-27
2023/06/21 04:54:06;;;;;;;80.75;38.35;;;17.50;99.90;;;;;;5118306;27;20043;-27
2023/06/21 04:56:31;;;;;;;64.05;31.55;;;17.30;99.90;;;;;;5136450;27;20043;-27
2023/06/21 04:58:57;;;;;;;75.65;36.78;;;17.60;99.90;;;;;;5136387;27;20449;-27
2023/06/21 05:01:23;;;;;;;67.47;32.38;;;17.30;99.90;;;;;;5117100;27;20492;-27
2023/06/21 05:03:51;;;;;;;86.93;34.28;;;17.50;99.90;;;;;;5135645;27;20053;-26
2023/06/21 05:06:20;;;;;;;61.53;34.05;;;17.40;99.90;;;;;;5135031;27;20043;-28
2023/06/21 05:08:46;;;;;;;64.15;33.17;;;17.40;99.90;;;;;;5117837;27;20055;-27
2023/06/21 05:11:12;;;;;;;67.40;32.30;;;17.30;99.90;;;;;;5117486;27;20051;-27
2023/06/21 05:13:37;;;;;;;56.88;30.55;;;17.70;99.90;;;;;;5135289;27;20458;-27
2023/06/21 05:16:03;;;;;;;60.97;30.58;;;17.60;99.90;;;;;;5117222;27;20126;-27
2023/06/21 05:18:29;;;;;;;60.70;29.95;;;17.60;99.90;;;;;;5135216;27;20085;-28
2023/06/21 05:20:55;;;;;;;53.15;28.70;;;17.90;99.90;;;;;;5136008;27;20468;-27
2023/06/21 05:23:21;;;;;;;48.38;24.35;;;18.00;99.90;;;;;;5100001;27;20043;-26
2023/06/21 05:25:47;;;;;;;46.15;26.30;;;17.80;99.90;;;;;;5116670;27;20039;-28
2023/06/21 05:28:13;;;;;;;44.35;22.33;;;17.90;99.90;;;;;;5135060;27;20065;-27
2023/06/21 05:30:38;;;;;;;43.20;24.17;;;17.90;99.90;;;;;;5116909;27;20050;-27
2023/06/21 05:33:04;;;;;;;38.28;21.50;;;18.00;99.90;;;;;;5135570;27;20047;-27
2023/06/21 05:35:30;;;;;;;36.33;20.10;;;18.10;99.90;;;;;;5135460;27;20046;-27
2023/06/21 05:37:56;;;;;;;26.80;18.20;;;18.20;99.90;;;;;;5082976;27;20051;-26
2023/06/21 05:40:22;;;;;;;32.75;20.42;;;18.30;99.90;;;;;;5066421;27;20054;-27
2023/06/21 05:42:48;;;;;;;29.55;18.88;;;18.30;99.90;;;;;;5134549;27;20430;-26
2023/06/21 05:45:14;;;;;;;27.25;17.83;;;18.40;99.90;;;;;;5134755;27;20035;-26
2023/06/21 05:47:40;;;;;;;27.45;15.68;;;18.00;99.90;;;;;;5135111;27;20055;-26
2023/06/21 05:50:06;;;;;;;24.63;15.93;;;17.90;99.90;;;;;;5134773;27;20047;-26
2023/06/21 05:52:31;;;;;;;26.85;16.17;;;18.10;99.90;;;;;;5116559;28;20118;-26
2023/06/21 05:54:57;;;;;;;27.10;16.75;;;18.10;99.90;;;;;;5135093;27;20129;-31
2023/06/21 05:57:24;;;;;;;29.38;18.60;;;18.10;99.90;;;;;;5134701;27;20126;-26
2023/06/21 05:59:50;;;;;;;26.70;16.73;;;18.30;99.90;;;;;;5135201;28;20047;-27
2023/06/21 06:02:16;;;;;;;31.17;18.67;;;18.50;99.90;;;;;;5116295;28;20043;-26
2023/06/21 06:04:42;;;;;;;22.58;16.92;;;18.80;99.90;;;;;;5117147;28;20039;-27
2023/06/21 06:07:07;;;;;;;27.40;17.58;;;19.10;99.90;;;;;;5135109;28;20483;-26
2023/06/21 06:09:33;;;;;;;25.35;17.30;;;19.40;99.90;;;;;;5116082;28;20457;-27
2023/06/21 06:11:59;;;;;;;25.40;18.40;;;19.50;99.90;;;;;;5116350;28;20043;-26
2023/06/21 06:14:25;;;;;;;27.38;18.10;;;19.30;99.90;;;;;;5116670;28;20046;-26
2023/06/21 06:16:50;;;;;;;26.17;19.02;;;19.50;99.90;;;;;;5134510;28;20503;-26
2023/06/21 06:19:16;;;;;;;26.60;17.40;;;19.70;99.90;;;;;;5138001;27;20472;-25
2023/06/21 06:21:42;;;;;;;30.40;20.42;;;19.80;99.90;;;;;;5138643;27;20047;-27
2023/06/21 06:24:08;;;;;;;27.90;19.52;;;19.90;99.90;;;;;;5120539;27;20076;-26
2023/06/21 06:26:33;;;;;;;27.73;19.35;;;20.20;99.90;;;;;;5138495;27;20507;-26
2023/06/21 06:28:59;;;;;;;26.13;19.65;;;20.40;99.90;;;;;;5103410;27;20492;-25
2023/06/21 06:31:29;;;;;;;31.10;20.55;;;20.60;99.90;;;;;;5139269;27;20057;-26
2023/06/21 06:33:55;;;;;;;27.40;19.52;;;20.80;99.90;;;;;;5138496;27;20054;-26
2023/06/21 06:36:21;;;;;;;25.27;18.02;;;20.50;99.90;;;;;;5138406;27;20043;-26
2023/06/21 06:38:51;;;;;;;23.88;17.52;;;20.30;99.90;;;;;;5119969;27;20043;-26
2023/06/21 06:41:17;;;;;;;27.60;19.33;;;20.40;99.90;;;;;;5138338;27;20373;-26
2023/06/21 06:43:44;;;;;;;25.23;18.00;;;20.30;99.90;;;;;;5119803;27;20039;-26
2023/06/21 06:46:10;;;;;;;22.92;18.85;;;20.30;99.90;;;;;;5138214;27;20125;-25
2023/06/21 06:48:36;;;;;;;21.25;16.17;;;20.60;99.90;;;;;;5138024;27;20129;-26
2023/06/21 06:51:02;;;;;;;25.17;17.45;;;20.60;99.90;;;;;;5120313;27;20060;-25
2023/06/21 06:53:28;;;;;;;21.08;17.38;;;20.90;99.90;;;;;;5138035;27;20082;-25
2023/06/21 06:55:55;;;;;;;18.88;14.13;;;21.30;99.90;;;;;;5120747;27;20078;-26
2023/06/21 06:58:21;;;;;;;20.85;15.30;;;21.40;1.00;;;;;;5119686;27;20047;-26
2023/06/21 07:00:47;;;;;;;14.52;12.95;;;21.30;99.90;;;;;;5137908;27;20074;-26
2023/06/21 07:03:13;;;;;;;18.52;14.90;;;21.40;99.90;;;;;;5137797;27;20433;-27
2023/06/21 07:05:46;;;;;;;18.25;13.65;;;21.70;99.90;;;;;;5120495;27;20125;-26
2023/06/21 07:08:12;;;;;;;16.70;12.48;;;21.70;18.50;;;;;;5137747;27;20473;-26
2023/06/21 07:10:39;;;;;;;15.18;12.52;;;21.50;74.10;;;;;;5137734;27;20039;-26
2023/06/21 07:13:06;;;;;;;16.33;11.73;;;21.40;1.00;;;;;;5137709;27;20050;-26
2023/06/21 07:15:32;;;;;;;17.80;11.32;;;21.40;1.00;;;;;;5120322;27;20050;-26
2023/06/21 07:17:58;;;;;;;16.35;12.27;;;21.70;1.00;;;;;;5120049;27;20047;-26
2023/06/21 07:20:23;;;;;;;13.13;10.65;;;21.40;99.90;;;;;;5119367;27;20084;-25
2023/06/21 07:22:49;;;;;;;14.13;10.15;;;21.60;99.90;;;;;;5085633;27;20039;-26
2023/06/21 07:25:15;;;;;;;13.60;9.55;;;21.50;99.90;;;;;;5137351;27;20492;-25
2023/06/21 07:27:41;;;;;;;12.90;10.00;;;21.30;99.90;;;;;;5137451;27;20047;-26
2023/06/21 07:30:08;;;;;;;12.18;8.88;;;21.10;99.90;;;;;;5137390;27;20039;-26
2023/06/21 07:32:33;;;;;;;12.20;10.32;;;21.20;99.90;;;;;;5137238;27;20550;-26
2023/06/21 07:35:00;;;;;;;12.90;10.90;;;21.60;99.90;;;;;;5119086;27;20074;-26
2023/06/21 07:37:30;;;;;;;11.63;8.55;;;21.80;99.90;;;;;;5137231;27;20126;-26
2023/06/21 07:39:56;;;;;;;12.98;9.27;;;21.50;1.00;;;;;;5102872;27;20047;-26
2023/06/21 07:42:22;;;;;;;10.30;8.90;;;21.40;99.90;;;;;;5119636;27;20129;-26
2023/06/21 07:44:50;;;;;;;11.57;8.20;;;21.60;99.90;;;;;;5136997;27;20115;-26
2023/06/21 07:47:16;;;;;;;15.23;9.88;;;21.60;99.90;;;;;;5137151;27;20415;-26
2023/06/21 07:49:42;;;;;;;12.73;8.98;;;21.90;99.90;;;;;;5118761;27;20094;-26
2023/06/21 07:52:09;;;;;;;11.25;8.40;;;22.00;1.00;;;;;;5136938;27;20070;-26
2023/06/21 07:54:35;;;;;;;9.82;7.20;;;22.30;99.90;;;;;;5136910;27;20096;-26
2023/06/21 07:57:00;;;;;;;9.23;7.32;;;22.10;97.10;;;;;;5136806;27;20047;-26
2023/06/21 07:59:26;;;;;;;10.43;7.78;;;22.20;99.90;;;;;;5118550;27;20042;-26
2023/06/21 08:01:52;;;;;;;12.60;9.25;;;22.20;99.90;;;;;;5119475;27;20047;-26
2023/06/21 08:04:17;;;;;;;9.77;8.07;;;22.50;99.90;;;;;;5137247;27;20574;-26
2023/06/21 08:06:43;;;;;;;10.50;8.10;;;22.60;99.90;;;;;;5118098;27;20050;-26
2023/06/21 08:09:09;;;;;;;12.57;7.50;;;22.80;80.00;;;;;;5118428;27;20043;-25
2023/06/21 08:11:34;;;;;;;12.15;9.18;;;23.20;1.00;;;;;;5137346;27;20146;-26
2023/06/21 08:14:00;;;;;;;12.90;7.63;;;23.10;1.00;;;;;;5136506;27;20392;-26
2023/06/21 08:16:26;;;;;;;11.25;7.95;;;22.90;1.00;;;;;;5136379;27;20078;-26
2023/06/21 08:18:52;;;;;;;9.93;7.50;;;23.00;99.90;;;;;;5119127;27;20043;-26
2023/06/21 08:21:17;;;;;;;11.18;7.57;;;23.00;99.90;;;;;;5101098;27;20119;-26
2023/06/21 08:23:43;;;;;;;11.50;6.95;;;22.90;99.90;;;;;;5137023;27;20122;-26
2023/06/21 08:26:09;;;;;;;12.20;7.28;;;23.10;99.90;;;;;;5118192;27;20047;-26
2023/06/21 08:28:35;;;;;;;11.40;7.40;;;23.20;99.90;;;;;;5136184;27;20464;-26
2023/06/21 08:31:00;;;;;;;9.82;6.25;;;23.50;99.90;;;;;;5136136;27;20043;-26
2023/06/21 08:33:26;;;;;;;9.60;5.70;;;23.70;1.00;;;;;;5136395;27;20337;-25
2023/06/21 08:35:52;;;;;;;11.23;6.90;;;24.00;99.90;;;;;;5117982;27;20435;-26
2023/06/21 08:38:17;;;;;;;10.02;6.13;;;23.80;99.90;;;;;;5136229;27;20047;-26
2023/06/21 08:40:45;;;;;;;8.52;6.57;;;23.70;99.90;;;;;;5117204;27;20035;-26
2023/06/21 08:43:11;;;;;;;9.30;7.15;;;23.40;99.90;;;;;;5118275;27;20043;-27
2023/06/21 08:45:38;;;;;;;8.32;6.18;;;23.50;99.90;;;;;;5135864;27;20039;-26
2023/06/21 08:48:06;;;;;;;7.80;5.50;;;23.70;99.90;;;;;;5135467;27;20051;-26
2023/06/21 08:50:36;;;;;;;6.78;4.78;;;23.90;70.20;;;;;;5136612;27;20073;-26
2023/06/21 08:53:07;;;;;;;8.63;5.28;;;24.20;1.00;;;;;;5117672;27;20039;-28
2023/06/21 08:55:35;;;;;;;8.23;5.60;;;24.40;99.90;;;;;;5135725;27;20043;-26
2023/06/21 08:58:08;;;;;;;10.20;6.22;;;24.30;99.90;;;;;;5117961;27;20042;-26
2023/06/21 09:00:39;;;;;;;7.55;5.82;;;24.30;1.00;;;;;;5118221;27;20108;-27
2023/06/21 09:03:07;;;;;;;7.20;5.57;;;24.60;1.00;;;;;;5136420;27;20404;-27
2023/06/21 09:05:41;;;;;;;7.28;5.07;;;24.50;1.00;;;;;;5135432;27;20511;-26
2023/06/21 09:08:07;;;;;;;10.70;5.65;;;24.50;99.90;;;;;;5117502;27;20491;-27
2023/06/21 09:10:36;;;;;;;12.07;5.55;;;25.10;99.90;;;;;;5135377;27;20043;-26
2023/06/21 09:13:03;;;;;;;8.45;5.80;;;25.20;99.90;;;;;;5135910;27;20074;-27
2023/06/21 09:15:30;;;;;;;8.63;5.40;;;24.80;99.90;;;;;;5135291;27;20047;-27
2023/06/21 09:17:56;;;;;;;8.55;5.53;;;24.70;99.90;;;;;;5135250;27;20051;-26
2023/06/21 09:20:27;;;;;;;10.50;5.78;;;25.00;99.90;;;;;;5117407;27;20054;-26
2023/06/21 09:22:56;;;;;;;9.65;5.85;;;24.80;99.90;;;;;;5100198;27;20127;-27
2023/06/21 09:25:22;;;;;;;6.32;4.43;;;24.70;99.90;;;;;;5134764;27;20492;-27
2023/06/21 09:27:48;;;;;;;6.78;6.05;;;24.60;99.90;;;;;;5116980;27;20054;-26
2023/06/21 09:30:14;;;;;;;6.70;5.43;;;25.10;99.90;;;;;;5083259;27;20043;-27
2023/06/21 09:32:41;;;;;;;6.00;5.38;;;25.30;99.90;;;;;;5116975;27;20123;-27
2023/06/21 09:35:07;;;;;;;10.10;6.38;;;25.60;60.90;;;;;;5134958;27;20078;-27
2023/06/21 09:37:38;;;;;;;10.05;6.45;;;25.40;27.70;;;;;;5135231;27;20043;-27
2023/06/21 09:40:05;;;;;;;7.72;5.97;;;24.80;1.00;;;;;;5116885;27;20057;-26
2023/06/21 09:42:31;;;;;;;9.82;5.82;;;24.50;99.90;;;;;;5083236;27;20082;-26
2023/06/21 09:44:57;;;;;;;6.63;5.43;;;24.90;99.90;;;;;;5134812;27;20099;-28
2023/06/21 09:47:28;;;;;;;8.57;4.93;;;25.20;1.00;;;;;;5134672;27;20055;-27
2023/06/21 09:49:54;;;;;;;6.22;4.93;;;25.40;1.00;;;;;;5135706;27;20082;-27
2023/06/21 09:52:22;;;;;;;7.40;5.22;;;25.80;1.00;;;;;;5116153;27;20484;-28
2023/06/21 09:54:48;;;;;;;11.88;6.07;;;26.00;99.90;;;;;;5134195;27;20426;-27
2023/06/21 09:57:13;;;;;;;9.27;6.53;;;25.60;1.00;;;;;;5134733;27;20087;-27
2023/06/21 09:59:40;;;;;;;6.40;5.60;;;24.70;1.00;;;;;;5135530;28;20050;-27
2023/06/21 10:02:07;;;;;;;8.05;5.75;;;24.70;99.90;;;;;;5116335;28;20057;-27
2023/06/21 10:04:44;;;;;;;7.00;5.88;;;25.20;99.90;;;;;;5116184;28;20043;-27
2023/06/21 10:07:14;;;;;;;8.95;5.38;;;25.90;99.90;;;;;;5134941;28;20039;-27
2023/06/21 10:09:41;;;;;;;9.05;6.00;;;25.90;99.90;;;;;;5135280;28;20047;-27
2023/06/21 10:12:11;;;;;;;7.45;5.35;;;25.80;99.90;;;;;;5134595;28;20048;-27
2023/06/21 10:14:39;;;;;;;6.55;4.88;;;25.30;99.90;;;;;;5134521;28;20507;-26
2023/06/21 10:17:05;;;;;;;6.25;5.32;;;25.10;99.90;;;;;;5134507;28;20049;-27
2023/06/21 10:19:32;;;;;;;10.40;6.80;;;25.20;99.90;;;;;;5116223;28;20058;-28
2023/06/21 10:22:15;;;;;;;6.43;5.20;;;25.10;99.90;;;;;;5134497;28;20058;-27
2023/06/21 10:24:51;;;;;;;9.85;5.70;;;24.70;1.00;;;;;;5135007;28;20377;-27
2023/06/21 10:27:19;;;;;;;8.88;6.07;;;24.50;99.90;;;;;;5134340;28;20133;-27
2023/06/21 10:29:53;;;;;;;6.65;5.20;;;24.50;99.90;;;;;;5134423;28;20047;-27
2023/06/21 10:32:21;;;;;;;6.95;5.82;;;24.50;1.00;;;;;;5134716;28;20070;-27
2023/06/21 10:35:12;;;;;;;6.90;5.00;;;24.50;99.90;;;;;;5099248;28;20484;-27
2023/06/21 10:37:50;;;;;;;9.05;5.45;;;24.00;57.00;;;;;;5100033;28;20086;-27
2023/06/21 10:40:17;;;;;;;9.18;5.70;;;24.20;99.90;;;;;;5134005;28;20520;-27
2023/06/21 10:42:44;;;;;;;7.43;6.00;;;24.20;99.90;;;;;;5134243;28;20122;-27
2023/06/21 10:45:11;;;;;;;10.23;4.80;;;24.10;99.90;;;;;;5115897;28;20039;-26
2023/06/21 10:47:37;;;;;;;6.10;4.28;;;23.80;53.20;;;;;;5134122;28;20067;-27
2023/06/21 10:50:05;;;;;;;4.90;3.90;;;23.90;2.10;;;;;;5133910;28;20454;-27
2023/06/21 10:52:31;;;;;;;5.95;4.43;;;24.00;99.90;;;;;;5134125;28;20104;-28
2023/06/21 10:54:57;;;;;;;6.30;3.63;;;24.10;1.00;;;;;;5099542;28;20149;-27
2023/06/21 10:57:28;;;;;;;5.25;4.05;;;24.20;1.00;;;;;;5134184;28;20042;-27
2023/06/21 11:00:00;;;;;;;7.95;4.45;;;24.70;1.00;;;;;;5134143;28;20047;-27
2023/06/21 11:02:27;;;;;;;5.18;4.10;;;24.50;1.00;;;;;;5134994;28;20051;-27
2023/06/21 11:05:11;;;;;;;6.90;3.90;;;24.50;1.00;;;;;;5136092;27;20050;-27
2023/06/21 11:07:38;;;;;;;4.85;3.70;;;24.50;99.90;;;;;;5137847;27;20489;-27
2023/06/21 11:10:07;;;;;;;5.60;3.70;;;25.30;1.00;;;;;;5137761;27;20050;-27
2023/06/21 11:12:36;;;;;;;5.05;3.65;;;25.60;1.00;;;;;;5119423;27;20043;-27
2023/06/21 11:15:05;;;;;;;8.88;3.58;;;25.30;99.90;;;;;;5119456;27;20051;-27
2023/06/21 11:17:35;;;;;;;4.93;3.92;;;24.90;99.90;;;;;;5138417;27;20050;-27
2023/06/21 11:20:20;;;;;;;8.98;5.13;;;25.30;1.00;;;;;;5102826;27;20051;-27
2023/06/21 11:23:09;;;;;;;6.10;4.03;;;25.90;99.90;;;;;;5137538;27;20558;-28
2023/06/21 11:25:38;;;;;;;7.20;4.03;;;25.50;99.90;;;;;;5137131;27;20504;-27
2023/06/21 11:28:19;;;;;;;5.90;4.60;;;24.90;99.90;;;;;;5119597;27;20035;-27
2023/06/21 11:31:03;;;;;;;6.38;4.53;;;24.60;99.90;;;;;;5137949;27;20047;-27
2023/06/21 11:33:30;;;;;;;7.60;4.75;;;25.00;1.00;;;;;;5137301;27;20095;-27
2023/06/21 11:36:06;;;;;;;7.53;5.05;;;25.50;1.00;;;;;;5138109;27;20107;-27
2023/06/21 11:38:33;;;;;;;6.90;5.05;;;25.60;99.90;;;;;;5138074;27;20050;-27
2023/06/21 11:41:01;;;;;;;7.60;4.90;;;25.20;99.90;;;;;;5137144;27;20047;-27
2023/06/21 11:43:27;;;;;;;6.28;4.65;;;24.80;99.90;;;;;;5137046;27;20119;-28
2023/06/21 11:46:01;;;;;;;11.43;5.45;;;24.60;99.90;;;;;;5137110;27;20051;-27
2023/06/21 11:48:28;;;;;;;9.20;6.88;;;24.60;1.00;;;;;;5136719;27;20094;-28
2023/06/21 11:50:55;;;;;;;8.85;6.78;;;24.30;56.10;;;;;;5137842;27;20063;-27
2023/06/21 11:53:30;;;;;;;7.60;5.85;;;24.10;5.10;;;;;;5136935;27;20489;-27
2023/06/21 11:56:01;;;;;;;8.93;6.93;;;24.20;99.90;;;;;;5119293;27;20130;-27
2023/06/21 11:58:27;;;;;;;10.18;7.50;;;25.00;99.90;;;;;;5137717;27;20039;-27
2023/06/21 12:00:55;;;;;;;9.32;7.25;;;25.20;8.80;;;;;;5136801;27;20043;-27
2023/06/21 12:03:25;;;;;;;7.85;6.47;;;25.00;1.00;;;;;;5136686;27;20058;-27
2023/06/21 12:05:59;;;;;;;11.68;8.18;;;24.70;1.00;;;;;;5118880;27;20046;-27
2023/06/21 12:08:33;;;;;;;9.45;7.88;;;25.20;99.90;;;;;;5136694;27;20046;-27
2023/06/21 12:11:07;;;;;;;10.15;8.65;;;24.80;1.00;;;;;;5118830;27;20051;-27
2023/06/21 12:13:33;;;;;;;10.93;9.82;;;24.40;99.90;;;;;;5136679;27;20047;-27
2023/06/21 12:16:03;;;;;;;9.27;8.25;;;24.60;99.90;;;;;;5135973;27;20043;-27
2023/06/21 12:18:34;;;;;;;11.18;8.10;;;24.70;99.90;;;;;;5118313;27;20050;-27
2023/06/21 12:21:02;;;;;;;11.77;9.80;;;24.30;99.90;;;;;;5137027;27;20043;-27
2023/06/21 12:23:28;;;;;;;13.07;10.18;;;24.20;99.90;;;;;;5136312;27;20039;-28
2023/06/21 12:26:01;;;;;;;10.63;9.45;;;24.10;99.90;;;;;;5117613;27;20496;-27
2023/06/21 12:28:27;;;;;;;10.35;8.43;;;24.00;99.90;;;;;;5118020;27;20088;-27
2023/06/21 12:30:57;;;;;;;12.73;10.00;;;23.80;99.90;;;;;;5113283;27;20043;-27
2023/06/21 12:33:27;;;;;;;10.02;8.20;;;24.20;99.90;;;;;;5094130;27;20051;-26